»·PEaware :: N2842Y KLAX-KSAN

N2842Y :: KLAX-KSAN

FLIGHT INFORMATION

Flight Status: Arrived
Operator: Privately registered:
United States
More flights under this callsign
Pilot: Cody B. (17747)
Aircraft: CESSNA 172 SKYHAWK
(C172)
More flights by this aircraft type
Origin: KLAX Los Angeles Intl
United States
Destination: KSAN San Diego Intl-Lindbergh
United States
More flights between these airports :: More routes between these airports
Route: +
File this flight plan on PilotEdge
Remarks: CAT10
Altitude:
(Current/Filed)
5,500ft
Speed:
(Current/Filed)
115kts
Departed: 16-Jun-18 02:40 PM
Arrived: 16-Jun-18 04:57 PM
Distance/Time
Traveled:
95nm/2:17
Distance/Time
To Go:
Arrived

Flight Plot

Page will automatically refresh every two minutes.


Map Options




Map Legend


Flown Route
Filed Route
Departure Airport
Arrival Airport
Navaid (VOR, NDB)
Fix

Horizontal Profiles

Position Reports

Time Latitude Longitude Heading Altitude Ground
Speed
16-Jun-18 14:27 33.933364 -118.398259 173 109ft 0kts
16-Jun-18 14:28 33.933364 -118.398259 173 109ft 0kts
16-Jun-18 14:29 33.933364 -118.398259 173 109ft 0kts
16-Jun-18 14:30 33.933364 -118.398259 173 109ft 0kts
16-Jun-18 14:31 33.933364 -118.398259 173 109ft 0kts
16-Jun-18 14:32 33.933669 -118.398093 355 109ft 6kts
16-Jun-18 14:33 33.934733 -118.396535 85 106ft 9kts
16-Jun-18 14:34 33.935021 -118.393440 84 102ft 9kts
16-Jun-18 14:35 33.935427 -118.389411 82 100ft 16kts
16-Jun-18 14:36 33.935836 -118.385298 83 99ft 9kts
16-Jun-18 14:37 33.936425 -118.382725 9 96ft 0kts
16-Jun-18 14:38 33.936461 -118.382720 5 96ft 0kts
16-Jun-18 14:39 33.937087 -118.382894 319 96ft 8kts
16-Jun-18 14:40 33.935550 -118.399127 259 366ft 87kts
16-Jun-18 14:41 33.932003 -118.431462 266 1180ft 95kts
16-Jun-18 14:42 33.929972 -118.462834 266 1940ft 92kts
16-Jun-18 14:43 33.926620 -118.493664 250 2379ft 94kts
16-Jun-18 14:44 33.904237 -118.500896 159 2475ft 106kts
16-Jun-18 14:45 33.876396 -118.488780 162 2475ft 107kts
16-Jun-18 14:46 33.849622 -118.474174 142 2475ft 106kts
16-Jun-18 14:47 33.826186 -118.452290 142 2475ft 107kts
16-Jun-18 14:48 33.806077 -118.433442 141 2947ft 74kts
16-Jun-18 14:49 33.789322 -118.417515 141 3555ft 84kts
16-Jun-18 14:50 33.773515 -118.397922 131 4271ft 70kts
16-Jun-18 14:51 33.760932 -118.380750 131 4879ft 80kts
16-Jun-18 14:52 33.751073 -118.353407 110 5499ft 90kts
16-Jun-18 14:53 33.742837 -118.327147 109 6287ft 79kts
16-Jun-18 14:54 33.735913 -118.304788 110 7066ft 63kts
16-Jun-18 14:55 33.729117 -118.282734 109 7557ft 84kts
16-Jun-18 14:56 33.718270 -118.248434 110 7530ft 118kts
16-Jun-18 14:57 33.706930 -118.212820 110 7531ft 114kts
16-Jun-18 14:58 33.695642 -118.177320 110 7530ft 114kts
16-Jun-18 14:59 33.683395 -118.138813 110 7072ft 133kts
16-Jun-18 15:03 33.933364 -118.398259 173 109ft 0kts
16-Jun-18 15:04 33.933364 -118.398259 173 109ft 0kts
16-Jun-18 15:05 33.933364 -118.398259 173 109ft 0kts
16-Jun-18 15:06 33.933364 -118.398259 173 109ft 0kts
16-Jun-18 15:07 33.933364 -118.398259 173 109ft 0kts
16-Jun-18 15:08 33.933364 -118.398259 173 109ft 0kts
16-Jun-18 15:09 33.933364 -118.398259 173 109ft 0kts
16-Jun-18 15:10 33.933364 -118.398259 173 109ft 0kts
16-Jun-18 15:11 33.933364 -118.398259 173 109ft 0kts
16-Jun-18 15:12 33.933364 -118.398259 173 109ft 0kts
16-Jun-18 15:13 33.933364 -118.398259 173 109ft 0kts
16-Jun-18 15:14 33.933364 -118.398259 173 109ft 0kts
16-Jun-18 15:15 33.933364 -118.398259 173 109ft 0kts
16-Jun-18 15:16 33.933364 -118.398259 173 109ft 0kts
16-Jun-18 15:17 33.933359 -118.398258 169 109ft 0kts
16-Jun-18 15:18 33.934379 -118.398142 19 109ft 6kts
16-Jun-18 15:19 33.934858 -118.395092 82 106ft 11kts
16-Jun-18 15:20 33.935287 -118.390812 83 102ft 12kts
16-Jun-18 15:21 33.935722 -118.386379 81 99ft 12kts
16-Jun-18 15:22 33.936461 -118.382713 13 96ft 3kts
16-Jun-18 15:23 33.936503 -118.382709 359 96ft 0kts
16-Jun-18 15:24 33.936931 -118.382785 349 96ft 5kts
16-Jun-18 15:25 33.935709 -118.396006 257 362ft 76kts
16-Jun-18 15:26 33.932582 -118.425019 264 1123ft 100kts
16-Jun-18 15:27 33.930905 -118.451470 266 1864ft 56kts
16-Jun-18 15:28 33.926218 -118.473135 207 2463ft 93kts
16-Jun-18 15:29 33.895993 -118.469765 171 2489ft 114kts
16-Jun-18 15:30 33.864887 -118.461267 142 2489ft 116kts
16-Jun-18 15:31 33.840095 -118.436139 139 2489ft 116kts
16-Jun-18 15:32 33.820259 -118.415775 138 3218ft 75kts
16-Jun-18 15:33 33.806485 -118.401422 138 3799ft 64kts
16-Jun-18 15:34 33.791117 -118.385313 132 4315ft 82kts
16-Jun-18 15:35 33.774861 -118.363246 131 4820ft 92kts
16-Jun-18 15:36 33.757260 -118.340015 132 5321ft 94kts
16-Jun-18 15:37 33.738208 -118.314406 128 5494ft 115kts
16-Jun-18 15:38 33.720611 -118.280635 120 5493ft 121kts
16-Jun-18 15:39 33.708138 -118.243039 104 5492ft 120kts
16-Jun-18 15:40 33.700212 -118.205382 104 5492ft 114kts
16-Jun-18 15:41 33.692496 -118.168399 102 5493ft 114kts
16-Jun-18 15:42 33.687539 -118.130904 97 5493ft 114kts
16-Jun-18 15:43 33.683207 -118.094022 97 5612ft 107kts
16-Jun-18 15:44 33.678866 -118.056874 97 5535ft 117kts
16-Jun-18 15:45 33.674429 -118.018780 97 5535ft 114kts
16-Jun-18 15:46 33.670091 -117.981282 97 5535ft 114kts
16-Jun-18 15:47 33.665768 -117.943742 97 5535ft 114kts
16-Jun-18 15:48 33.661580 -117.907183 97 5697ft 103kts
16-Jun-18 15:49 33.658122 -117.876497 97 6185ft 85kts
16-Jun-18 15:50 33.655215 -117.850085 96 6647ft 78kts
16-Jun-18 15:51 33.652168 -117.822334 96 6954ft 88kts
16-Jun-18 15:52 33.648841 -117.792231 96 7291ft 90kts
16-Jun-18 15:53 33.645421 -117.761199 97 7489ft 102kts
16-Jun-18 15:54 33.641423 -117.725154 97 7486ft 112kts
16-Jun-18 15:55 33.637272 -117.687651 97 7486ft 113kts
16-Jun-18 15:56 33.633105 -117.650001 97 7485ft 114kts
16-Jun-18 15:57 33.624671 -117.613364 109 7485ft 114kts
16-Jun-18 15:58 33.612556 -117.578326 113 7485ft 114kts
16-Jun-18 15:59 33.599266 -117.543771 114 7485ft 114kts
16-Jun-18 16:00 33.585664 -117.509508 115 7485ft 114kts
16-Jun-18 16:01 33.571916 -117.475214 115 7485ft 114kts
16-Jun-18 16:02 33.558187 -117.441087 115 7485ft 114kts
16-Jun-18 16:03 33.544625 -117.407404 115 7541ft 112kts
16-Jun-18 16:04 33.533219 -117.379133 115 7540ft 113kts
16-Jun-18 16:05 33.519485 -117.345135 115 7540ft 114kts
16-Jun-18 16:06 33.503195 -117.313036 136 7541ft 114kts
16-Jun-18 16:07 33.479832 -117.287075 137 7541ft 116kts
16-Jun-18 16:08 33.455881 -117.260868 137 7540ft 117kts
16-Jun-18 16:09 33.431874 -117.234734 137 7540ft 116kts
16-Jun-18 16:10 33.407934 -117.208717 137 7540ft 116kts
16-Jun-18 16:11 33.383986 -117.182702 137 7540ft 116kts
16-Jun-18 16:12 33.360065 -117.156746 137 7540ft 116kts
16-Jun-18 16:13 33.336101 -117.130757 137 7540ft 116kts
16-Jun-18 16:14 33.312177 -117.104845 137 7540ft 116kts
16-Jun-18 16:15 33.288234 -117.078932 137 7540ft 116kts
16-Jun-18 16:16 33.264320 -117.053069 137 7540ft 116kts
16-Jun-18 16:17 33.241710 -117.025476 130 7540ft 116kts
16-Jun-18 16:18 33.220590 -116.996389 130 7540ft 116kts
16-Jun-18 16:19 33.199396 -116.967199 130 7540ft 116kts
16-Jun-18 16:20 33.178204 -116.938097 130 7540ft 116kts
16-Jun-18 16:21 33.156998 -116.909078 130 7540ft 116kts
16-Jun-18 16:22 33.135744 -116.879973 130 7540ft 116kts
16-Jun-18 16:23 33.114512 -116.850878 130 7540ft 116kts
16-Jun-18 16:24 33.093342 -116.821865 130 7540ft 116kts
16-Jun-18 16:25 33.072174 -116.792855 130 7540ft 116kts
16-Jun-18 16:26 33.050960 -116.763784 130 7540ft 116kts
16-Jun-18 16:27 33.029018 -116.735637 156 7538ft 116kts
16-Jun-18 16:28 32.997620 -116.742180 196 7540ft 116kts
16-Jun-18 16:29 32.966902 -116.753747 197 7540ft 116kts
16-Jun-18 16:30 32.936872 -116.765381 197 7538ft 101kts
16-Jun-18 16:31 32.909216 -116.776038 197 7541ft 109kts
16-Jun-18 16:32 32.879262 -116.777596 164 7377ft 118kts
16-Jun-18 16:33 32.868014 -116.748113 51 6869ft 116kts
16-Jun-18 16:34 32.896302 -116.731370 6 6367ft 116kts
16-Jun-18 16:35 32.903414 -116.757750 205 5851ft 108kts
16-Jun-18 16:36 32.883758 -116.747711 97 5545ft 87kts
16-Jun-18 16:37 32.869686 -116.729049 193 5458ft 102kts
16-Jun-18 16:38 32.840522 -116.741882 201 4960ft 105kts
16-Jun-18 16:39 32.815766 -116.753711 201 4550ft 84kts
16-Jun-18 16:40 32.789938 -116.765954 201 4539ft 108kts
16-Jun-18 16:41 32.761372 -116.779514 201 4539ft 111kts
16-Jun-18 16:42 32.734874 -116.791482 200 4538ft 92kts
16-Jun-18 16:43 32.711008 -116.802175 200 4540ft 94kts
16-Jun-18 16:44 32.685084 -116.813774 200 4539ft 102kts
16-Jun-18 16:45 32.677640 -116.843025 273 4539ft 103kts
16-Jun-18 16:46 32.680381 -116.876977 278 4539ft 103kts
16-Jun-18 16:47 32.684874 -116.911007 278 4479ft 108kts
16-Jun-18 16:48 32.689668 -116.947181 278 4041ft 111kts
16-Jun-18 16:49 32.694395 -116.982894 278 3541ft 106kts
16-Jun-18 16:50 32.698916 -117.017153 278 3041ft 104kts
16-Jun-18 16:51 32.703310 -117.050508 279 2536ft 93kts
16-Jun-18 16:52 32.708078 -117.076922 282 2006ft 79kts
16-Jun-18 16:53 32.713116 -117.103891 282 1721ft 82kts
16-Jun-18 16:54 32.718832 -117.130631 285 1117ft 78kts
16-Jun-18 16:55 32.724287 -117.152400 287 676ft 71kts
16-Jun-18 16:56 32.729803 -117.174381 287 162ft 69kts
16-Jun-18 16:57 32.733931 -117.190775 314 17ft 13kts
16-Jun-18 16:58 32.734665 -117.190778 34 17ft 0kts
16-Jun-18 16:59 32.734820 -117.190548 63 17ft 7kts
16-Jun-18 17:00 32.733628 -117.185169 106 17ft 21kts
16-Jun-18 17:01 32.732095 -117.178752 107 20ft 14kts
16-Jun-18 17:02 32.732338 -117.177214 120 20ft 0kts
16-Jun-18 17:03 32.732338 -117.177214 120 20ft 0kts
16-Jun-18 17:04 32.732338 -117.177214 120 20ft 0kts
16-Jun-18 17:05 32.732338 -117.177214 120 20ft 0kts

Navigation Log

Ident Type
1. KLAX Airport
2. KSAN Airport